createdAt,value
2023-05-12T00:00:09.606Z,6.87
2023-05-12T00:02:37.698Z,6.90
2023-05-12T00:05:06.364Z,6.83
2023-05-12T00:07:34.308Z,8.37
2023-05-12T00:10:02.395Z,7.07
2023-05-12T00:12:31.707Z,9.10
2023-05-12T00:14:59.826Z,7.27
2023-05-12T00:17:27.992Z,7.77
2023-05-12T00:19:56.293Z,12.10
2023-05-12T00:22:24.523Z,10.43
2023-05-12T00:24:52.492Z,8.70
2023-05-12T00:27:20.527Z,8.77
2023-05-12T00:29:49.863Z,8.67
2023-05-12T00:32:17.916Z,9.63
2023-05-12T00:34:46.099Z,8.77
2023-05-12T00:37:14.032Z,9.13
2023-05-12T00:39:43.489Z,8.73
2023-05-12T00:42:11.846Z,8.87
2023-05-12T00:44:39.941Z,7.37
2023-05-12T00:47:10.070Z,9.27
2023-05-12T00:49:38.060Z,8.30
2023-05-12T00:52:07.465Z,8.70
2023-05-12T00:54:36.470Z,9.37
2023-05-12T00:57:04.659Z,9.20
2023-05-12T00:59:32.868Z,9.30
2023-05-12T01:02:00.880Z,9.23
2023-05-12T01:04:30.711Z,14.27
2023-05-12T01:07:05.305Z,13.27
2023-05-12T01:09:33.233Z,12.60
2023-05-12T01:12:01.386Z,13.20
2023-05-12T01:14:29.322Z,10.97
2023-05-12T01:17:01.696Z,14.10
2023-05-12T01:19:41.007Z,12.30
2023-05-12T01:22:10.094Z,12.47
2023-05-12T01:24:43.681Z,10.87
2023-05-12T01:27:14.279Z,13.83
2023-05-12T01:29:42.287Z,11.73
2023-05-12T01:32:11.138Z,11.63
2023-05-12T01:34:39.061Z,11.87
2023-05-12T01:37:07.089Z,10.13
2023-05-12T01:39:34.953Z,11.53
2023-05-12T01:42:03.013Z,12.50
2023-05-12T01:44:32.387Z,14.10
2023-05-12T01:47:01.499Z,10.77
2023-05-12T01:49:29.627Z,13.60
2023-05-12T01:51:57.722Z,13.10
2023-05-12T01:54:25.646Z,13.03
2023-05-12T01:56:53.755Z,12.37
2023-05-12T01:59:21.694Z,14.40
2023-05-12T02:01:51.126Z,13.20
2023-05-12T02:04:19.089Z,9.77
2023-05-12T02:06:47.070Z,12.07
2023-05-12T02:09:14.985Z,12.17
2023-05-12T02:11:42.895Z,12.37
2023-05-12T02:14:10.882Z,13.27
2023-05-12T02:16:38.844Z,13.60
2023-05-12T02:19:08.317Z,13.60
2023-05-12T02:21:36.289Z,13.13
2023-05-12T02:24:04.299Z,14.47
2023-05-12T02:26:32.371Z,10.50
2023-05-12T02:29:00.564Z,9.87
2023-05-12T02:31:28.889Z,13.33
2023-05-12T02:33:57.054Z,14.87
2023-05-12T02:36:26.415Z,14.63
2023-05-12T02:38:54.460Z,10.00
2023-05-12T02:41:22.401Z,9.47
2023-05-12T02:43:50.312Z,7.40
2023-05-12T02:46:18.356Z,5.13
2023-05-12T02:48:46.363Z,4.43
2023-05-12T02:51:14.471Z,3.80
2023-05-12T02:53:43.908Z,7.10
2023-05-12T02:56:12.044Z,4.57
2023-05-12T02:58:39.979Z,3.50
2023-05-12T03:01:11.123Z,5.20
2023-05-12T03:03:39.735Z,4.07
2023-05-12T03:06:08.171Z,4.40
2023-05-12T03:08:36.324Z,5.80
2023-05-12T03:11:05.772Z,5.07
2023-05-12T03:13:33.652Z,5.50
2023-05-12T03:16:02.250Z,7.43
2023-05-12T03:18:30.482Z,7.33
2023-05-12T03:20:58.585Z,7.13
2023-05-12T03:23:26.789Z,6.97
2023-05-12T03:25:55.505Z,7.00
2023-05-12T03:28:24.943Z,8.00
2023-05-12T03:30:52.896Z,9.90
2023-05-12T03:33:20.848Z,8.93
2023-05-12T03:35:49.013Z,16.80
2023-05-12T03:38:16.929Z,8.03
2023-05-12T03:40:44.825Z,11.10
2023-05-12T03:43:12.923Z,6.47
2023-05-12T03:45:42.326Z,6.97
2023-05-12T03:48:10.802Z,5.60
2023-05-12T03:50:38.768Z,7.40
2023-05-12T03:53:06.862Z,6.37
2023-05-12T03:55:35.012Z,8.07
2023-05-12T03:58:03.472Z,8.97
2023-05-12T04:00:31.525Z,6.87
2023-05-12T04:03:01.391Z,9.60
2023-05-12T04:05:29.693Z,7.70
2023-05-12T04:07:57.747Z,7.10
2023-05-12T04:10:25.699Z,8.50
2023-05-12T04:12:54.772Z,8.53
2023-05-12T04:15:23.042Z,5.83
2023-05-12T04:17:51.092Z,4.90
2023-05-12T04:20:21.030Z,8.20
2023-05-12T04:22:49.153Z,6.77
2023-05-12T04:25:17.171Z,5.63
2023-05-12T04:27:45.052Z,7.17
2023-05-12T04:30:13.326Z,10.53
2023-05-12T04:32:41.414Z,7.93
2023-05-12T04:35:10.031Z,6.53
2023-05-12T04:37:39.442Z,7.10
2023-05-12T04:40:08.888Z,5.77
2023-05-12T04:42:36.819Z,8.30
2023-05-12T04:45:05.754Z,7.40
2023-05-12T04:47:33.667Z,4.97
2023-05-12T04:50:02.008Z,6.20
2023-05-12T04:52:30.232Z,4.33
2023-05-12T04:54:59.629Z,4.97
2023-05-12T04:57:27.719Z,5.50
2023-05-12T04:59:55.632Z,6.40
2023-05-12T05:02:23.873Z,5.90
2023-05-12T05:04:52.650Z,5.03
2023-05-12T05:07:20.588Z,3.50
2023-05-12T05:09:48.581Z,2.90
2023-05-12T05:12:18.334Z,6.60
2023-05-12T05:14:46.524Z,3.43
2023-05-12T05:17:14.800Z,3.80
2023-05-12T05:19:54.898Z,4.20
2023-05-12T05:22:27.501Z,4.67
2023-05-12T05:24:55.559Z,4.50
2023-05-12T05:27:24.847Z,5.70
2023-05-12T05:29:52.919Z,4.40
2023-05-12T05:32:21.657Z,4.37
2023-05-12T05:34:49.857Z,3.60
2023-05-12T05:37:19.050Z,4.90
2023-05-12T05:39:47.012Z,4.00
2023-05-12T05:42:15.918Z,4.90
2023-05-12T05:44:45.354Z,4.70
2023-05-12T05:47:13.349Z,3.80
2023-05-12T05:49:42.273Z,4.00
2023-05-12T05:52:10.340Z,3.57
2023-05-12T05:54:38.411Z,7.40
2023-05-12T05:57:06.701Z,5.07
2023-05-12T05:59:34.611Z,4.93
2023-05-12T06:02:04.022Z,5.77
2023-05-12T06:04:31.900Z,5.27
2023-05-12T06:06:59.812Z,6.00
2023-05-12T06:09:27.734Z,6.00
2023-05-12T06:11:55.643Z,4.20
2023-05-12T06:14:23.717Z,4.83
2023-05-12T06:16:51.982Z,8.30
2023-05-12T06:19:21.565Z,6.27
2023-05-12T06:21:49.622Z,4.40
2023-05-12T06:24:17.728Z,4.43
2023-05-12T06:26:45.675Z,5.47
2023-05-12T06:29:13.810Z,5.10
2023-05-12T06:31:41.897Z,6.87
2023-05-12T06:34:09.851Z,5.93
2023-05-12T06:36:39.899Z,4.97
2023-05-12T06:39:07.906Z,5.87
2023-05-12T06:41:35.997Z,5.93
2023-05-12T06:44:03.903Z,5.83
2023-05-12T06:46:32.202Z,6.20
2023-05-12T06:49:01.565Z,5.13
2023-05-12T06:51:29.452Z,8.20
2023-05-12T06:53:58.783Z,6.27
2023-05-12T06:56:26.851Z,6.90
2023-05-12T06:58:56.694Z,8.70
2023-05-12T07:01:24.631Z,5.40
2023-05-12T07:03:52.587Z,6.30
2023-05-12T07:06:20.678Z,7.77
2023-05-12T07:08:48.935Z,7.73
2023-05-12T07:11:20.107Z,6.67
2023-05-12T07:13:48.532Z,6.80
2023-05-12T07:16:16.629Z,6.10
2023-05-12T07:18:44.869Z,5.30
2023-05-12T07:21:13.655Z,7.00
2023-05-12T07:23:41.984Z,7.43
2023-05-12T07:26:10.064Z,8.80
2023-05-12T07:28:39.347Z,8.87
2023-05-12T07:31:09.196Z,6.13
2023-05-12T07:33:37.444Z,9.20
2023-05-12T07:36:05.732Z,6.57
2023-05-12T07:38:33.601Z,7.60
2023-05-12T07:41:01.733Z,6.60
2023-05-12T07:43:29.767Z,9.77
2023-05-12T07:46:00.981Z,7.30
2023-05-12T07:48:29.148Z,7.83
2023-05-12T07:50:57.396Z,10.00
2023-05-12T07:53:25.311Z,7.10
2023-05-12T07:55:55.318Z,7.22
2023-05-12T07:58:23.312Z,9.30
2023-05-12T08:00:51.201Z,9.20
2023-05-12T08:03:20.667Z,9.80
2023-05-12T08:05:48.674Z,6.70
2023-05-12T08:08:17.299Z,6.03
2023-05-12T08:10:45.445Z,7.50
2023-05-12T08:13:14.102Z,8.23
2023-05-12T08:15:42.123Z,7.00
2023-05-12T08:18:10.160Z,7.50
2023-05-12T08:20:39.442Z,9.10
2023-05-12T08:23:07.395Z,8.60
2023-05-12T08:25:37.018Z,7.03
2023-05-12T08:28:05.240Z,8.63
2023-05-12T08:30:33.330Z,6.87
2023-05-12T08:33:01.865Z,7.68
2023-05-12T08:35:30.062Z,6.93
2023-05-12T08:37:59.616Z,3.37
2023-05-12T08:40:31.376Z,11.67
2023-05-12T08:43:14.104Z,5.57
2023-05-12T08:45:42.286Z,3.40
2023-05-12T08:48:11.399Z,2.40
2023-05-12T08:50:39.992Z,4.10
2023-05-12T08:53:12.316Z,3.70
2023-05-12T08:55:46.083Z,2.93
2023-05-12T08:58:25.297Z,2.47
2023-05-12T09:01:04.624Z,2.23
2023-05-12T09:03:32.925Z,2.23
2023-05-12T09:06:01.711Z,2.50
2023-05-12T09:08:33.078Z,1.20
2023-05-12T09:11:01.840Z,2.60
2023-05-12T09:13:37.160Z,3.07
2023-05-12T09:16:07.424Z,3.30
2023-05-12T09:18:52.230Z,6.63
2023-05-12T09:21:20.959Z,4.80
2023-05-12T09:23:57.735Z,6.87
2023-05-12T09:26:26.824Z,6.60
2023-05-12T09:28:56.180Z,4.80
2023-05-12T09:31:26.033Z,6.93
2023-05-12T09:33:54.207Z,6.00
2023-05-12T09:36:23.354Z,6.17
2023-05-12T09:39:04.698Z,4.53
2023-05-12T09:41:32.903Z,6.50
2023-05-12T09:44:01.082Z,5.40
2023-05-12T09:46:29.089Z,5.53
2023-05-12T09:48:57.777Z,4.60
2023-05-12T09:51:26.733Z,5.67
2023-05-12T09:53:54.692Z,3.53
2023-05-12T09:56:28.384Z,5.07
2023-05-12T09:58:58.300Z,3.73
2023-05-12T10:01:27.781Z,3.53
2023-05-12T10:03:58.042Z,6.60
2023-05-12T10:06:28.482Z,4.20
2023-05-12T10:09:05.392Z,8.10
2023-05-12T10:11:35.282Z,7.43
2023-05-12T10:14:03.670Z,6.87
2023-05-12T10:16:33.049Z,6.00
2023-05-12T10:19:01.575Z,4.93
2023-05-12T10:21:30.192Z,7.73
2023-05-12T10:23:58.908Z,5.47
2023-05-12T10:26:27.449Z,3.40
2023-05-12T10:28:56.954Z,5.27
2023-05-12T10:31:26.083Z,9.97
2023-05-12T10:33:58.889Z,4.53
2023-05-12T10:36:26.886Z,7.87
2023-05-12T10:38:55.075Z,9.00
2023-05-12T10:41:33.851Z,3.07
2023-05-12T10:44:03.330Z,6.17
2023-05-12T10:46:31.518Z,4.60
2023-05-12T10:49:04.505Z,5.37
2023-05-12T10:51:34.067Z,4.03
2023-05-12T10:54:03.739Z,4.50
2023-05-12T10:56:44.910Z,5.63
2023-05-12T10:59:18.657Z,4.90
2023-05-12T11:02:06.911Z,4.53
2023-05-12T11:04:44.862Z,4.80
2023-05-12T11:07:16.220Z,6.00
2023-05-12T11:12:17.882Z,5.70
2023-05-12T11:14:47.988Z,4.83
2023-05-12T11:17:16.379Z,3.83
2023-05-12T11:19:48.064Z,4.30
2023-05-12T11:22:19.204Z,4.70
2023-05-12T11:24:47.842Z,3.13
2023-05-12T11:27:17.552Z,1.30
2023-05-12T11:29:56.568Z,1.10
2023-05-12T11:32:24.669Z,1.17
2023-05-12T11:34:52.634Z,1.53
2023-05-12T11:37:21.607Z,1.90
2023-05-12T11:39:49.789Z,2.30
2023-05-12T11:42:19.770Z,1.63
2023-05-12T11:44:51.174Z,2.27
2023-05-12T11:47:20.811Z,4.17
2023-05-12T11:49:50.524Z,2.03
2023-05-12T11:52:19.469Z,3.00
2023-05-12T11:54:51.989Z,3.00
2023-05-12T11:57:28.490Z,3.00
2023-05-12T12:00:05.374Z,2.00
2023-05-12T12:02:33.766Z,2.30
2023-05-12T12:05:01.894Z,3.80
2023-05-12T12:07:31.742Z,3.17
2023-05-12T12:10:00.341Z,1.80
2023-05-12T12:12:29.768Z,1.77
2023-05-12T12:15:00.405Z,2.30
2023-05-12T12:17:31.209Z,2.83
2023-05-12T12:19:59.233Z,5.57
2023-05-12T12:22:27.378Z,4.30
2023-05-12T12:24:55.273Z,3.30
2023-05-12T12:27:23.241Z,2.83
2023-05-12T12:29:51.297Z,2.73
2023-05-12T12:32:19.644Z,3.07
2023-05-12T12:34:49.445Z,2.43
2023-05-12T12:37:17.763Z,1.53
2023-05-12T12:39:47.654Z,3.47
2023-05-12T12:42:15.899Z,3.33
2023-05-12T12:44:46.039Z,3.53
2023-05-12T12:47:14.258Z,4.07
2023-05-12T12:49:42.412Z,3.10
2023-05-12T12:52:11.826Z,4.80
2023-05-12T12:54:41.144Z,5.83
2023-05-12T12:57:09.130Z,2.30
2023-05-12T12:59:37.272Z,4.57
2023-05-12T13:02:09.999Z,3.83
2023-05-12T13:04:38.145Z,4.37
2023-05-12T13:07:06.914Z,12.10
2023-05-12T13:09:40.767Z,3.03
2023-05-12T13:12:09.469Z,6.90
2023-05-12T13:14:37.534Z,3.00
2023-05-12T13:17:05.970Z,4.53
2023-05-12T13:19:36.506Z,6.07
2023-05-12T13:22:06.508Z,4.37
2023-05-12T13:24:38.539Z,5.03
2023-05-12T13:27:08.330Z,4.73
2023-05-12T13:29:36.317Z,6.33
2023-05-12T13:32:04.603Z,6.63
2023-05-12T13:34:32.549Z,5.50
2023-05-12T13:37:00.725Z,5.20
2023-05-12T13:39:28.654Z,5.73
2023-05-12T13:41:58.392Z,5.17
2023-05-12T13:44:26.347Z,5.87
2023-05-12T13:46:54.365Z,6.23
2023-05-12T13:49:22.334Z,4.37
2023-05-12T13:51:50.217Z,6.27
2023-05-12T13:54:18.183Z,6.40
2023-05-12T13:56:46.174Z,6.63
2023-05-12T13:59:16.304Z,6.10
2023-05-12T14:01:45.087Z,7.33
2023-05-12T14:04:14.535Z,8.60
2023-05-12T14:06:43.660Z,8.73
2023-05-12T14:09:11.828Z,6.53
2023-05-12T14:11:39.795Z,6.17
2023-05-12T14:14:07.962Z,6.10
2023-05-12T14:16:37.415Z,8.45
2023-05-12T14:19:05.523Z,7.03
2023-05-12T14:21:33.885Z,5.33
2023-05-12T14:24:02.795Z,5.90
2023-05-12T14:26:30.888Z,6.63
2023-05-12T14:28:59.017Z,5.23
2023-05-12T14:31:27.064Z,6.33
2023-05-12T14:33:56.540Z,6.83
2023-05-12T14:36:24.558Z,7.53
2023-05-12T14:38:52.588Z,5.95
2023-05-12T14:41:22.289Z,7.83
2023-05-12T14:43:50.221Z,5.77
2023-05-12T14:46:18.296Z,7.30
2023-05-12T14:48:48.786Z,5.33
2023-05-12T14:51:18.358Z,4.63
2023-05-12T14:53:46.317Z,6.80
2023-05-12T14:56:14.481Z,5.90
2023-05-12T14:58:42.754Z,5.73
2023-05-12T15:01:11.182Z,6.40
2023-05-12T15:03:39.759Z,6.90
2023-05-12T15:06:08.778Z,7.03
2023-05-12T15:08:38.241Z,6.33
2023-05-12T15:11:06.229Z,4.47
2023-05-12T15:13:34.478Z,6.00
2023-05-12T15:16:04.441Z,6.83
2023-05-12T15:18:32.978Z,7.07
2023-05-12T15:21:00.986Z,9.83
2023-05-12T15:23:28.983Z,8.70
2023-05-12T15:26:01.285Z,6.40
2023-05-12T15:28:35.728Z,6.60
2023-05-12T15:31:04.473Z,7.33
2023-05-12T15:33:32.528Z,6.40
2023-05-12T15:36:02.532Z,5.83
2023-05-12T15:38:30.468Z,6.30
2023-05-12T15:41:00.086Z,6.97
2023-05-12T15:43:29.777Z,6.77
2023-05-12T15:45:58.059Z,7.27
2023-05-12T15:48:26.081Z,6.33
2023-05-12T15:50:54.634Z,8.00
2023-05-12T15:53:22.642Z,5.77
2023-05-12T15:55:59.522Z,5.63
2023-05-12T15:58:28.905Z,8.20
2023-05-12T16:00:57.272Z,5.90
2023-05-12T16:03:25.448Z,6.73
2023-05-12T16:05:53.682Z,7.97
2023-05-12T16:08:22.122Z,7.53
2023-05-12T16:10:50.246Z,5.90
2023-05-12T16:13:18.175Z,7.17
2023-05-12T16:15:47.452Z,6.30
2023-05-12T16:18:15.391Z,8.97
2023-05-12T16:20:44.560Z,7.10
2023-05-12T16:23:12.551Z,6.70
2023-05-12T16:25:41.905Z,4.53
2023-05-12T16:28:09.949Z,6.27
2023-05-12T16:30:38.071Z,5.70
2023-05-12T16:33:07.974Z,5.30
2023-05-12T16:35:36.037Z,6.83
2023-05-12T16:38:04.312Z,8.40
2023-05-12T16:40:32.395Z,4.07
2023-05-12T16:43:00.308Z,2.93
2023-05-12T16:45:28.278Z,3.90
2023-05-12T16:47:58.405Z,3.10
2023-05-12T16:50:27.900Z,3.60
2023-05-12T16:52:55.798Z,3.03
2023-05-12T16:55:24.032Z,2.53
2023-05-12T16:57:52.290Z,3.58
2023-05-12T17:00:21.172Z,3.73
2023-05-12T17:20:15.721Z,3.70
2023-05-12T17:31:16.781Z,2.73
2023-05-12T17:33:46.576Z,3.87
2023-05-12T17:36:14.625Z,7.90
2023-05-12T17:38:43.761Z,4.40
2023-05-12T17:41:59.723Z,3.10
2023-05-12T18:03:18.026Z,3.17
2023-05-12T18:08:39.247Z,3.20
2023-05-12T18:11:40.105Z,2.90
2023-05-12T18:14:45.655Z,2.77
2023-05-12T18:20:42.801Z,3.43
2023-05-12T18:23:19.093Z,4.63
2023-05-12T18:32:55.710Z,3.30
2023-05-12T18:38:41.916Z,4.03
2023-05-12T18:41:35.823Z,3.50
2023-05-12T18:47:30.855Z,4.07
2023-05-12T18:50:44.415Z,4.70
2023-05-12T18:54:07.250Z,4.63
2023-05-12T18:56:56.987Z,3.40
2023-05-12T19:05:19.344Z,4.00
2023-05-12T19:10:42.782Z,3.63
2023-05-12T19:20:16.503Z,3.57
2023-05-12T19:23:57.902Z,11.17
2023-05-12T19:47:25.123Z,5.50
2023-05-12T19:50:19.213Z,5.73
2023-05-12T19:55:55.380Z,5.20
2023-05-12T19:58:34.052Z,5.23
2023-05-12T20:22:33.845Z,6.17
2023-05-12T20:25:36.446Z,7.97
2023-05-12T20:28:50.462Z,5.27
2023-05-12T20:31:18.661Z,7.20
2023-05-12T20:33:49.208Z,5.70
2023-05-12T21:17:01.527Z,8.80
2023-05-12T21:26:40.387Z,8.47
2023-05-12T21:29:08.228Z,6.60
2023-05-12T21:31:36.080Z,6.33
2023-05-12T21:34:04.070Z,7.00
2023-05-12T21:36:33.604Z,7.17
2023-05-12T21:39:01.408Z,6.70
2023-05-12T21:41:29.473Z,6.40
2023-05-12T21:43:58.719Z,7.07
2023-05-12T21:46:26.765Z,9.30
2023-05-12T21:48:54.614Z,5.70
2023-05-12T21:51:40.752Z,8.30
2023-05-12T21:57:36.329Z,7.10
2023-05-12T22:03:13.897Z,5.07
2023-05-12T22:16:42.213Z,6.60
2023-05-12T22:37:56.329Z,5.30
2023-05-12T23:43:44.633Z,7.30
2023-05-12T23:46:48.757Z,9.23
2023-05-12T23:49:53.819Z,8.70
2023-05-12T23:52:21.719Z,8.93
2023-05-12T23:54:49.765Z,6.70
2023-05-12T23:57:17.599Z,8.00
2023-05-12T23:59:45.728Z,7.00
